createdAt,value
2022-10-30T00:03:46.964Z,98278.88
2022-10-30T00:07:49.353Z,98285.41
2022-10-30T00:11:51.415Z,98281.38
2022-10-30T00:15:53.939Z,98271.81
2022-10-30T00:19:55.945Z,98263.88
2022-10-30T00:23:57.924Z,98268.88
2022-10-30T00:27:59.931Z,98269.25
2022-10-30T00:32:02.039Z,98265.56
2022-10-30T00:36:04.325Z,98276.03
2022-10-30T00:40:07.494Z,98277.00
2022-10-30T00:44:31.382Z,98281.63
2022-10-30T00:48:34.620Z,98271.44
2022-10-30T00:52:42.859Z,98265.66
2022-10-30T00:56:47.921Z,98273.22
2022-10-30T01:00:54.564Z,98270.00
2022-10-30T01:04:56.858Z,98266.41
2022-10-30T01:09:00.341Z,98269.78
2022-10-30T01:13:03.129Z,98266.91
2022-10-30T01:17:42.396Z,98267.63
2022-10-30T01:21:53.838Z,98260.41
2022-10-30T01:26:14.125Z,98259.16
2022-10-30T01:30:25.689Z,98255.19
2022-10-30T01:34:38.669Z,98254.25
2022-10-30T01:38:59.935Z,98250.56
2022-10-30T01:43:02.735Z,98247.19
2022-10-30T01:47:30.593Z,98250.63
2022-10-30T01:51:41.817Z,98252.34
2022-10-30T01:55:58.898Z,98253.13
2022-10-30T02:00:07.229Z,98258.50
2022-10-30T02:04:15.145Z,98267.53
2022-10-30T02:08:17.780Z,98267.88
2022-10-30T02:12:21.505Z,98259.75
2022-10-30T02:16:24.438Z,98252.41
2022-10-30T02:20:27.153Z,98257.38
2022-10-30T02:24:30.550Z,98257.72
2022-10-30T02:28:32.588Z,98251.66
2022-10-30T02:32:35.009Z,98266.91
2022-10-30T02:36:37.655Z,98260.38
2022-10-30T02:40:39.709Z,98261.19
2022-10-30T02:44:43.095Z,98257.88
2022-10-30T02:48:45.146Z,98268.63
2022-10-30T02:52:49.202Z,98278.31
2022-10-30T02:56:52.283Z,98274.91
2022-10-30T03:00:54.328Z,98261.97
2022-10-30T03:04:56.452Z,98257.06
2022-10-30T03:08:58.979Z,98251.13
2022-10-30T03:13:00.985Z,98261.09
2022-10-30T03:17:03.039Z,98257.78
2022-10-30T03:21:07.178Z,98267.56
2022-10-30T03:25:09.496Z,98273.94
2022-10-30T03:29:11.551Z,98270.69
2022-10-30T03:33:13.824Z,98266.00
2022-10-30T03:37:15.885Z,98259.09
2022-10-30T03:41:17.947Z,98261.34
2022-10-30T03:45:19.999Z,98257.78
2022-10-30T03:49:22.113Z,98258.63
2022-10-30T03:53:26.219Z,98252.41
2022-10-30T03:57:28.293Z,98250.63
2022-10-30T04:01:49.749Z,98256.94
2022-10-30T04:05:53.463Z,98256.63
2022-10-30T04:09:55.992Z,98265.19
2022-10-30T04:13:58.110Z,98267.22
2022-10-30T04:18:00.779Z,98263.50
2022-10-30T04:22:04.074Z,98258.66
2022-10-30T04:26:06.413Z,98259.44
2022-10-30T04:30:12.935Z,98252.47
2022-10-30T04:34:15.072Z,98254.00
2022-10-30T04:38:19.584Z,98252.16
2022-10-30T04:42:22.901Z,98243.28
2022-10-30T04:46:25.069Z,98238.00
2022-10-30T04:50:31.341Z,98249.34
2022-10-30T04:54:33.526Z,98240.81
2022-10-30T04:58:35.576Z,98244.31
2022-10-30T05:06:46.329Z,98238.50
2022-10-30T05:10:51.134Z,98241.03
2022-10-30T05:14:53.172Z,98249.41
2022-10-30T05:18:55.219Z,98241.50
2022-10-30T05:22:58.811Z,98236.72
2022-10-30T05:27:01.512Z,98236.28
2022-10-30T05:31:05.238Z,98232.69
2022-10-30T05:35:27.923Z,98236.19
2022-10-30T05:39:30.532Z,98227.53
2022-10-30T05:43:33.528Z,98231.25
2022-10-30T05:47:35.590Z,98224.13
2022-10-30T05:51:40.472Z,98225.28
2022-10-30T05:55:45.550Z,98220.88
2022-10-30T05:59:53.482Z,98226.59
2022-10-30T06:03:55.505Z,98235.91
2022-10-30T06:07:57.677Z,98238.31
2022-10-30T06:11:59.804Z,98241.56
2022-10-30T06:16:13.787Z,98240.53
2022-10-30T06:20:33.222Z,98251.06
2022-10-30T06:24:55.215Z,98249.53
2022-10-30T06:29:29.283Z,98259.44
2022-10-30T06:33:31.517Z,98256.97
2022-10-30T06:37:35.114Z,98259.84
2022-10-30T06:41:42.916Z,98272.22
2022-10-30T06:45:59.383Z,98274.94
2022-10-30T06:50:02.951Z,98280.34
2022-10-30T06:54:05.944Z,98272.66
2022-10-30T06:58:38.896Z,98271.44
2022-10-30T07:03:02.009Z,98261.38
2022-10-30T07:07:05.031Z,98260.84
2022-10-30T07:11:07.046Z,98268.16
2022-10-30T07:15:30.276Z,98279.16
2022-10-30T07:19:41.240Z,98277.06
2022-10-30T07:23:43.369Z,98282.09
2022-10-30T07:28:11.732Z,98282.56
2022-10-30T07:32:18.981Z,98275.72
2022-10-30T07:36:50.092Z,98281.97
2022-10-30T07:41:15.384Z,98284.13
2022-10-30T07:45:23.375Z,98284.13
2022-10-30T07:49:44.183Z,98271.97
2022-10-30T07:53:48.393Z,98278.31
2022-10-30T07:57:50.977Z,98271.25
2022-10-30T08:02:11.452Z,98275.50
2022-10-30T08:06:46.129Z,98280.69
2022-10-30T08:10:48.682Z,98277.91
2022-10-30T08:14:52.279Z,98268.06
2022-10-30T08:18:54.465Z,98278.41
2022-10-30T08:23:00.138Z,98273.47
2022-10-30T08:27:03.318Z,98282.66
2022-10-30T08:31:05.981Z,98283.44
2022-10-30T08:35:30.523Z,98287.03
2022-10-30T08:39:34.035Z,98284.94
2022-10-30T08:44:08.089Z,98282.00
2022-10-30T08:48:30.335Z,98272.94
2022-10-30T08:52:32.412Z,98277.53
2022-10-30T08:56:34.481Z,98284.91
2022-10-30T09:00:43.974Z,98285.09
2022-10-30T09:04:46.006Z,98279.28
2022-10-30T09:09:06.381Z,98276.19
2022-10-30T09:13:16.777Z,98280.88
2022-10-30T09:17:18.932Z,98281.94
2022-10-30T09:21:22.470Z,98268.84
2022-10-30T09:25:27.697Z,98266.63
2022-10-30T09:29:48.830Z,98268.03
2022-10-30T09:33:58.395Z,98264.66
2022-10-30T09:38:16.118Z,98266.50
2022-10-30T09:42:28.850Z,98271.19
2022-10-30T09:47:06.877Z,98277.91
2022-10-30T09:51:45.536Z,98271.19
2022-10-30T09:56:08.501Z,98271.31
2022-10-30T10:00:14.845Z,98267.09
2022-10-30T10:04:35.210Z,98267.94
2022-10-30T10:09:02.865Z,98267.28
2022-10-30T10:13:47.816Z,98265.78
2022-10-30T10:17:49.929Z,98266.00
2022-10-30T10:22:00.564Z,98268.75
2022-10-30T10:26:28.894Z,98278.72
2022-10-30T10:31:02.779Z,98268.41
2022-10-30T10:35:21.901Z,98265.09
2022-10-30T10:39:52.028Z,98265.22
2022-10-30T10:44:11.239Z,98269.25
2022-10-30T10:48:31.617Z,98267.56
2022-10-30T10:52:42.861Z,98257.34
2022-10-30T10:56:47.999Z,98266.44
2022-10-30T11:00:50.053Z,98254.28
2022-10-30T11:04:55.676Z,98259.50
2022-10-30T11:09:16.504Z,98256.94
2022-10-30T11:13:18.524Z,98252.63
2022-10-30T11:17:40.778Z,98249.13
2022-10-30T11:21:48.189Z,98247.59
2022-10-30T11:25:50.220Z,98246.66
2022-10-30T11:30:01.668Z,98246.66
2022-10-30T11:34:18.768Z,98241.81
2022-10-30T11:38:21.205Z,98240.41
2022-10-30T11:42:23.308Z,98242.56
2022-10-30T11:46:25.487Z,98241.88
2022-10-30T11:50:30.468Z,98238.38
2022-10-30T11:54:37.957Z,98238.38
2022-10-30T11:58:45.743Z,98230.59
2022-10-30T12:02:51.501Z,98229.38
2022-10-30T12:07:33.430Z,98235.31
2022-10-30T12:11:37.349Z,98228.66
2022-10-30T12:15:39.413Z,98222.22
2022-10-30T12:19:53.981Z,98227.53
2022-10-30T12:24:01.328Z,98219.31
2022-10-30T12:28:33.942Z,98215.53
2022-10-30T12:33:01.044Z,98205.97
2022-10-30T12:37:28.507Z,98211.31
2022-10-30T12:41:45.235Z,98203.91
2022-10-30T12:45:51.132Z,98201.56
2022-10-30T12:54:30.065Z,98193.28
2022-10-30T12:58:46.460Z,98193.78
2022-10-30T13:03:13.183Z,98194.25
2022-10-30T13:07:47.562Z,98193.88
2022-10-30T13:12:10.621Z,98184.91
2022-10-30T13:16:30.069Z,98190.56
2022-10-30T13:20:33.717Z,98180.88
2022-10-30T13:25:04.253Z,98182.13
2022-10-30T13:29:12.692Z,98175.94
2022-10-30T13:33:36.769Z,98184.53
2022-10-30T13:37:51.855Z,98175.78
2022-10-30T13:42:12.309Z,98188.44
2022-10-30T13:46:31.171Z,98178.53
2022-10-30T13:51:21.491Z,98172.94
2022-10-30T13:55:33.363Z,98180.25
2022-10-30T13:59:55.893Z,98172.78
2022-10-30T14:04:32.120Z,98177.69
2022-10-30T14:09:10.752Z,98178.91
2022-10-30T14:13:20.773Z,98191.50
2022-10-30T14:17:22.786Z,98186.28
2022-10-30T14:21:39.823Z,98187.38
2022-10-30T14:25:42.960Z,98184.69
2022-10-30T14:29:47.687Z,98192.91
2022-10-30T14:33:54.003Z,98197.25
2022-10-30T14:37:57.091Z,98210.28
2022-10-30T14:42:18.534Z,98198.31
2022-10-30T14:46:32.317Z,98200.59
2022-10-30T14:50:59.909Z,98202.94
2022-10-30T14:55:14.047Z,98205.84
2022-10-30T14:59:16.040Z,98200.75
2022-10-30T15:03:21.034Z,98198.09
2022-10-30T15:07:50.406Z,98198.09
2022-10-30T15:12:09.210Z,98204.25
2022-10-30T15:16:16.338Z,98204.59
2022-10-30T15:20:24.590Z,98195.41
2022-10-30T15:24:32.393Z,98203.06
2022-10-30T15:28:36.717Z,98201.84
2022-10-30T15:32:40.722Z,98215.72
2022-10-30T15:36:43.037Z,98208.53
2022-10-30T15:40:45.283Z,98217.91
2022-10-30T15:44:47.376Z,98216.66
2022-10-30T15:48:49.855Z,98225.06
2022-10-30T15:52:53.894Z,98231.78
2022-10-30T16:01:26.272Z,98237.94
2022-10-30T16:05:28.516Z,98236.91
2022-10-30T16:09:30.738Z,98235.75
2022-10-30T16:13:35.343Z,98228.44
2022-10-30T16:17:37.531Z,98230.88
2022-10-30T16:21:39.658Z,98230.56
2022-10-30T16:25:47.020Z,98231.22
2022-10-30T16:29:52.467Z,98230.88
2022-10-30T16:33:57.181Z,98225.25
2022-10-30T16:38:02.500Z,98230.78
2022-10-30T16:42:04.699Z,98228.53
2022-10-30T16:46:15.864Z,98234.13
2022-10-30T16:50:20.390Z,98237.31
2022-10-30T16:54:29.770Z,98233.25
2022-10-30T16:58:31.962Z,98239.16
2022-10-30T17:02:36.676Z,98246.16
2022-10-30T17:06:40.271Z,98249.28
2022-10-30T17:10:43.526Z,98255.66
2022-10-30T17:14:49.933Z,98260.75
2022-10-30T17:18:53.594Z,98259.25
2022-10-30T17:23:25.767Z,98266.66
2022-10-30T17:27:33.463Z,98276.69
2022-10-30T17:31:38.472Z,98276.19
2022-10-30T17:35:40.594Z,98282.81
2022-10-30T17:39:42.707Z,98284.25
2022-10-30T17:43:51.017Z,98292.78
2022-10-30T17:47:53.483Z,98291.63
2022-10-30T17:51:56.173Z,98294.41
2022-10-30T17:56:05.286Z,98304.22
2022-10-30T18:00:08.207Z,98305.19
2022-10-30T18:04:20.492Z,98312.63
2022-10-30T18:08:23.071Z,98323.75
2022-10-30T18:12:25.113Z,98323.47
2022-10-30T18:16:27.224Z,98334.66
2022-10-30T18:20:29.576Z,98341.69
2022-10-30T18:24:31.578Z,98343.50
2022-10-30T18:28:33.595Z,98344.63
2022-10-30T18:32:35.758Z,98352.50
2022-10-30T18:36:37.738Z,98348.31
2022-10-30T18:40:40.562Z,98354.91
2022-10-30T18:44:42.584Z,98353.63
2022-10-30T18:48:45.567Z,98344.41
2022-10-30T18:52:48.124Z,98357.13
2022-10-30T18:56:50.119Z,98355.84
2022-10-30T19:01:11.196Z,98361.63
2022-10-30T19:05:29.419Z,98372.69
2022-10-30T19:09:32.535Z,98368.06
2022-10-30T19:13:34.600Z,98369.53
2022-10-30T19:17:36.672Z,98374.31
2022-10-30T19:21:38.685Z,98366.88
2022-10-30T19:25:44.215Z,98358.59
2022-10-30T19:29:46.210Z,98370.47
2022-10-30T19:33:53.025Z,98374.41
2022-10-30T19:37:58.963Z,98375.03
2022-10-30T19:42:01.213Z,98373.97
2022-10-30T19:46:03.296Z,98376.44
2022-10-30T19:50:28.325Z,98374.94
2022-10-30T19:54:31.242Z,98374.63
2022-10-30T19:58:33.335Z,98377.69
2022-10-30T20:02:35.431Z,98365.88
2022-10-30T20:06:37.490Z,98371.53
2022-10-30T20:10:42.227Z,98367.34
2022-10-30T20:14:44.273Z,98374.66
2022-10-30T20:18:46.298Z,98378.31
2022-10-30T20:22:48.628Z,98382.72
2022-10-30T20:26:50.725Z,98385.47
2022-10-30T20:30:53.952Z,98385.69
2022-10-30T20:34:55.937Z,98391.19
2022-10-30T20:38:58.237Z,98397.50
2022-10-30T20:43:02.978Z,98396.22
2022-10-30T20:47:05.329Z,98400.72
2022-10-30T20:51:07.685Z,98400.06
2022-10-30T20:55:11.029Z,98404.63
2022-10-30T20:59:13.198Z,98412.59
2022-10-30T21:03:15.373Z,98402.69
2022-10-30T21:07:17.407Z,98418.94
2022-10-30T21:11:19.415Z,98414.81
2022-10-30T21:15:21.654Z,98419.22
2022-10-30T21:19:23.874Z,98408.81
2022-10-30T21:23:25.906Z,98397.00
2022-10-30T21:27:27.897Z,98406.94
2022-10-30T21:31:29.957Z,98411.59
2022-10-30T21:35:31.964Z,98417.59
2022-10-30T21:39:34.084Z,98417.81
2022-10-30T21:43:36.104Z,98416.22
2022-10-30T21:47:38.091Z,98416.88
2022-10-30T21:51:41.161Z,98411.88
2022-10-30T21:55:43.270Z,98416.91
2022-10-30T21:59:45.336Z,98413.88
2022-10-30T22:03:47.801Z,98419.16
2022-10-30T22:07:52.259Z,98415.00
2022-10-30T22:11:54.267Z,98419.63
2022-10-30T22:15:56.359Z,98410.44
2022-10-30T22:19:58.532Z,98411.06
2022-10-30T22:24:01.432Z,98407.66
2022-10-30T22:28:03.917Z,98405.09
2022-10-30T22:32:06.240Z,98405.47
2022-10-30T22:36:14.794Z,98408.88
2022-10-30T22:40:16.854Z,98412.44
2022-10-30T22:44:19.577Z,98416.94
2022-10-30T22:48:21.653Z,98425.88
2022-10-30T22:52:23.671Z,98418.03
2022-10-30T22:56:28.934Z,98425.97
2022-10-30T23:00:30.949Z,98425.38
2022-10-30T23:04:32.978Z,98423.66
2022-10-30T23:08:35.741Z,98419.75
2022-10-30T23:12:37.754Z,98420.09
2022-10-30T23:16:39.778Z,98416.44
2022-10-30T23:20:43.762Z,98413.63
2022-10-30T23:24:47.995Z,98418.75
2022-10-30T23:28:52.563Z,98424.84
2022-10-30T23:32:54.545Z,98423.94
2022-10-30T23:36:59.184Z,98430.22
2022-10-30T23:41:03.817Z,98421.56
2022-10-30T23:45:06.421Z,98433.97
2022-10-30T23:49:08.480Z,98431.38
2022-10-30T23:53:10.488Z,98434.66
2022-10-30T23:57:13.584Z,98441.34
